| time (UTC) | temp C | wind direction | speed KPH | gust KPH | rain 1hr cm | rain 24hr cm | rain mn cm | humidity % | barometer mb |
| 20260505173054 | 5 | 146 | 6.4 | 14.5 | 0.00 | 0.36 | 0.25 | 89 | 1012.9 |
| 20260505172558 | 5 | 93 | 6.4 | 14.5 | 0.00 | 0.36 | 0.25 | 90 | 1012.6 |
| 20260505172051 | 5 | 93 | 4.8 | 12.9 | 0.00 | 0.36 | 0.25 | 90 | 1012.6 |
| 20260505171557 | 5 | 67 | 3.2 | 11.3 | 0.00 | 0.36 | 0.25 | 90 | 1012.5 |
| 20260505171052 | 5 | 137 | 3.2 | 11.3 | 0.00 | 0.36 | 0.25 | 90 | 1012.5 |
| 20260505170553 | 5 | 111 | 4.8 | 11.3 | 0.00 | 0.36 | 0.25 | 90 | 1012.5 |
| 20260505170058 | 5 | 90 | 1.6 | 11.3 | 0.00 | 0.36 | 0.25 | 90 | 1012.5 |
| 20260505165552 | 5 | 82 | 3.2 | 11.3 | 0.03 | 0.36 | 0.25 | 90 | 1012.4 |
| 20260505165052 | 5 | 131 | 1.6 | 8.0 | 0.03 | 0.36 | 0.25 | 90 | 1012.4 |
| 20260505164602 | 5 | 108 | 1.6 | 6.4 | 0.03 | 0.36 | 0.25 | 90 | 1012.4 |
| 20260505164055 | 5 | 158 | 1.6 | 6.4 | 0.03 | 0.36 | 0.25 | 91 | 1012.4 |
| 20260505163554 | 5 | 51 | 1.6 | 9.7 | 0.03 | 0.36 | 0.25 | 91 | 1012.4 |
| 20260505163056 | 5 | 120 | 3.2 | 11.3 | 0.05 | 0.36 | 0.25 | 91 | 1012.4 |
| 20260505162551 | 5 | 168 | 3.2 | 11.3 | 0.05 | 0.36 | 0.25 | 91 | 1012.4 |
| 20260505162052 | 4 | 149 | 3.2 | 14.5 | 0.05 | 0.36 | 0.25 | 91 | 1012.4 |
| 20260505161556 | 4 | 59 | 4.8 | 14.5 | 0.05 | 0.36 | 0.25 | 91 | 1012.5 |
| 20260505161051 | 4 | 126 | 4.8 | 12.9 | 0.05 | 0.36 | 0.25 | 91 | 1012.5 |
| 20260505160552 | 4 | 70 | 4.8 | 12.9 | 0.05 | 0.36 | 0.25 | 91 | 1012.5 |
| 20260505153056 | 4 | 123 | 3.2 | 6.4 | 0.00 | 0.30 | 0.20 | 91 | 1012.2 |
| 20260505152556 | 4 | 51 | 0.0 | 8.0 | 0.00 | 0.30 | 0.20 | 91 | 1012.2 |
| 20260505152053 | 4 | 0 | 1.6 | 14.5 | 0.00 | 0.30 | 0.20 | 91 | 1012.1 |
| 20260505151557 | 4 | 34 | 4.8 | 14.5 | 0.00 | 0.30 | 0.20 | 91 | 1012.2 |
| 20260505151053 | 4 | 55 | 1.6 | 8.0 | 0.00 | 0.30 | 0.20 | 91 | 1012.2 |
| 20260505150552 | 4 | 111 | 3.2 | 8.0 | 0.00 | 0.30 | 0.20 | 91 | 1012.2 |
| 20260505140554 | 4 | 9 | 1.6 | 4.8 | 0.05 | 0.30 | 0.20 | 91 | 1012.1 |
| 20260505140116 | 4 | 34 | 0.0 | 6.4 | 0.05 | 0.30 | 0.20 | 91 | 1012.2 |
| 20260505124601 | 5 | 165 | 3.2 | 9.7 | 0.03 | 0.23 | 0.13 | 90 | 1011.3 |
| 20260505124052 | 5 | 192 | 3.2 | 8.0 | 0.03 | 0.23 | 0.13 | 90 | 1011.3 |
| 20260505123552 | 5 | 201 | 1.6 | 3.2 | 0.03 | 0.23 | 0.13 | 91 | 1011.2 |
| 20260505123058 | 5 | 229 | 1.6 | 3.2 | 0.03 | 0.23 | 0.13 | 91 | 1011.2 |
| 20260505122552 | 5 | 0 | 0.0 | 3.2 | 0.03 | 0.23 | 0.13 | 91 | 1011.2 |
| 20260505122054 | 5 | 247 | 1.6 | 6.4 | 0.03 | 0.23 | 0.13 | 91 | 1011.2 |
| 20260505121557 | 5 | 0 | 1.6 | 6.4 | 0.05 | 0.23 | 0.13 | 90 | 1011.2 |
| 20260505121052 | 5 | 57 | 3.2 | 6.4 | 0.05 | 0.23 | 0.13 | 90 | 1011.2 |
| 20260505120554 | 5 | 334 | 3.2 | 6.4 | 0.05 | 0.23 | 0.13 | 90 | 1011.1 |
| 20260505120111 | 5 | 205 | 1.6 | 6.4 | 0.05 | 0.23 | 0.13 | 90 | 1011.2 |
| 20260505115551 | 5 | 319 | 1.6 | 6.4 | 0.05 | 0.23 | 0.13 | 90 | 1011.2 |
| 20260505115053 | 6 | 0 | 1.6 | 6.4 | 0.05 | 0.23 | 0.13 | 90 | 1011.2 |
| 20260505114557 | 6 | 34 | 0.0 | 3.2 | 0.03 | 0.20 | 0.10 | 90 | 1011.1 |
| 20260505114054 | 6 | 298 | 0.0 | 4.8 | 0.05 | 0.20 | 0.10 | 90 | 1011.2 |
| 20260505113554 | 6 | 0 | 0.0 | 8.0 | 0.08 | 0.20 | 0.10 | 90 | 1011.2 |
| 20260505113101 | 6 | 115 | 1.6 | 8.0 | 0.08 | 0.20 | 0.10 | 89 | 1011.2 |
| 20260505112552 | 6 | 229 | 4.8 | 8.0 | 0.08 | 0.20 | 0.10 | 89 | 1011.1 |
| 20260505112054 | 6 | 221 | 3.2 | 11.3 | 0.10 | 0.20 | 0.10 | 89 | 1011.2 |
| 20260505111555 | 6 | 239 | 6.4 | 11.3 | 0.08 | 0.18 | 0.08 | 89 | 1011.1 |
| 20260505111054 | 6 | 232 | 4.8 | 8.0 | 0.08 | 0.18 | 0.08 | 90 | 1011.1 |
| 20260505110552 | 6 | 234 | 3.2 | 6.4 | 0.08 | 0.18 | 0.08 | 89 | 1011.2 |
| 20260505102052 | 6 | 233 | 4.8 | 9.7 | 0.00 | 0.10 | 0.00 | 86 | 1011.2 |
| 20260505101601 | 6 | 239 | 1.6 | 4.8 | 0.00 | 0.10 | 0.00 | 87 | 1011.2 |
| 20260505101054 | 6 | 205 | 0.0 | 4.8 | 0.00 | 0.10 | 0.00 | 86 | 1011.3 |
| 20260505100555 | 6 | 265 | 0.0 | 4.8 | 0.00 | 0.10 | 0.00 | 86 | 1011.2 |
| 20260505100100 | 6 | 0 | 1.6 | 8.0 | 0.00 | 0.10 | 0.00 | 86 | 1011.2 |
| 20260505095553 | 6 | 298 | 3.2 | 8.0 | 0.00 | 0.10 | 0.00 | 85 | 1011.2 |
| 20260505095057 | 6 | 296 | 3.2 | 8.0 | 0.00 | 0.10 | 0.00 | 84 | 1011.2 |
| 20260505094602 | 6 | 330 | 3.2 | 8.0 | 0.00 | 0.10 | 0.00 | 83 | 1011.3 |
| 20260505094051 | 5 | 328 | 3.2 | 6.4 | 0.00 | 0.10 | 0.00 | 82 | 1011.2 |
| 20260505093555 | 5 | 282 | 0.0 | 3.2 | 0.00 | 0.10 | 0.00 | 82 | 1011.4 |
| 20260505093056 | 5 | 0 | 0.0 | 3.2 | 0.00 | 0.10 | 0.00 | 82 | 1011.4 |
| 20260505092555 | 5 | 292 | 1.6 | 3.2 | 0.00 | 0.10 | 0.00 | 82 | 1011.4 |
| 20260505092052 | 5 | 0 | 0.0 | 3.2 | 0.00 | 0.10 | 0.00 | 81 | 1011.2 |
| 20260505091602 | 5 | 0 | 0.0 | 3.2 | 0.00 | 0.10 | 0.00 | 81 | 1011.2 |
| 20260505091055 | 5 | 282 | 0.0 | 3.2 | 0.00 | 0.10 | 0.00 | 81 | 1011.3 |
| 20260505090551 | 5 | 0 | 0.0 | 4.8 | 0.00 | 0.10 | 0.00 | 81 | 1011.3 |
| 20260505090058 | 5 | 0 | 0.0 | 8.0 | 0.00 | 0.10 | 0.00 | 81 | 1011.3 |
| 20260505085553 | 5 | 57 | 0.0 | 8.0 | 0.00 | 0.10 | 0.00 | 81 | 1011.4 |
| 20260505085051 | 5 | 219 | 4.8 | 8.0 | 0.00 | 0.10 | 0.00 | 80 | 1011.2 |
| 20260505084604 | 5 | 239 | 3.2 | 8.0 | 0.00 | 0.10 | 0.00 | 80 | 1011.4 |
| 20260505084053 | 5 | 292 | 3.2 | 4.8 | 0.00 | 0.10 | 0.00 | 80 | 1011.4 |
| 20260505083554 | 5 | 294 | 1.6 | 4.8 | 0.00 | 0.10 | 0.00 | 80 | 1011.5 |
| 20260505083106 | 5 | 280 | 1.6 | 4.8 | 0.00 | 0.10 | 0.00 | 80 | 1011.4 |
| 20260505082552 | 5 | 265 | 1.6 | 4.8 | 0.00 | 0.10 | 0.00 | 80 | 1011.4 |
| 20260505082052 | 5 | 257 | 1.6 | 8.0 | 0.00 | 0.10 | 0.00 | 79 | 1011.4 |
| 20260505081551 | 5 | 265 | 1.6 | 8.0 | 0.00 | 0.10 | 0.00 | 79 | 1011.4 |
| 20260505081052 | 5 | 212 | 1.6 | 6.4 | 0.00 | 0.10 | 0.00 | 79 | 1011.5 |
| 20260505080551 | 6 | 265 | 1.6 | 6.4 | 0.00 | 0.10 | 0.00 | 78 | 1011.5 |
| 20260505080055 | 5 | 265 | 3.2 | 6.4 | 0.00 | 0.10 | 0.00 | 78 | 1011.6 |
| 20260505075552 | 5 | 279 | 3.2 | 6.4 | 0.00 | 0.10 | 0.00 | 78 | 1011.7 |
| 20260505075055 | 5 | 254 | 3.2 | 9.7 | 0.00 | 0.10 | 0.00 | 78 | 1011.6 |
| 20260505074553 | 5 | 305 | 1.6 | 9.7 | 0.00 | 0.10 | 0.00 | 78 | 1011.6 |
| 20260505074052 | 5 | 287 | 3.2 | 6.4 | 0.00 | 0.10 | 0.00 | 78 | 1011.5 |
| 20260505073552 | 5 | 250 | 1.6 | 6.4 | 0.00 | 0.10 | 0.00 | 78 | 1011.6 |
| 20260505073058 | 5 | 309 | 3.2 | 6.4 | 0.00 | 0.10 | 0.00 | 78 | 1011.5 |
| 20260505072555 | 5 | 279 | 1.6 | 6.4 | 0.00 | 0.10 | 0.00 | 78 | 1011.6 |
| 20260505072110 | 5 | 235 | 3.2 | 6.4 | 0.00 | 0.10 | 0.00 | 77 | 1011.6 |
| 20260505071602 | 5 | 157 | 0.0 | 4.8 | 0.00 | 0.10 | 0.00 | 77 | 1011.6 |
| 20260505071052 | 5 | 0 | 0.0 | 6.4 | 0.00 | 0.10 | 0.00 | 77 | 1011.6 |
| 20260505070552 | 5 | 312 | 1.6 | 6.4 | 0.00 | 0.10 | 0.00 | 77 | 1011.5 |
| 20260505070106 | 5 | 294 | 3.2 | 9.7 | 0.00 | 0.10 | 0.00 | 77 | 1011.5 |
| 20260505065551 | 5 | 292 | 3.2 | 9.7 | 0.00 | 0.10 | 0.00 | 76 | 1011.4 |
| 20260505065056 | 5 | 300 | 3.2 | 6.4 | 0.00 | 0.10 | 0.00 | 78 | 1011.4 |
| 20260505064558 | 5 | 275 | 1.6 | 4.8 | 0.00 | 0.10 | 0.00 | 78 | 1011.4 |
| 20260505064051 | 5 | 0 | 1.6 | 4.8 | 0.00 | 0.10 | 0.00 | 77 | 1011.4 |
| 20260505063554 | 5 | 292 | 1.6 | 6.4 | 0.00 | 0.10 | 0.00 | 77 | 1011.4 |
| 20260505063057 | 5 | 61 | 1.6 | 6.4 | 0.00 | 0.10 | 0.00 | 76 | 1011.3 |
| 20260505062557 | 5 | 292 | 1.6 | 6.4 | 0.00 | 0.10 | 0.00 | 76 | 1011.3 |
| 20260505062056 | 5 | 246 | 1.6 | 6.4 | 0.00 | 0.10 | 0.00 | 76 | 1011.3 |
| 20260505061630 | 5 | 254 | 1.6 | 4.8 | 0.00 | 0.10 | 0.00 | 75 | 1011.5 |
| 20260505061052 | 5 | 288 | 3.2 | 6.4 | 0.00 | 0.10 | 0.00 | 75 | 1011.4 |
| 20260505060554 | 5 | 250 | 3.2 | 6.4 | 0.00 | 0.10 | 0.00 | 75 | 1011.5 |
| 20260505055552 | 6 | 298 | 0.0 | 8.0 | 0.00 | 0.10 | 0.10 | 74 | 1011.5 |
| 20260505055053 | 6 | 150 | 0.0 | 9.7 | 0.00 | 0.10 | 0.10 | 73 | 1011.6 |
| 20260505054557 | 6 | 301 | 3.2 | 9.7 | 0.00 | 0.10 | 0.10 | 72 | 1011.5 |
| 20260505054051 | 6 | 282 | 3.2 | 6.4 | 0.00 | 0.10 | 0.10 | 71 | 1011.4 |
| 20260505053554 | 6 | 244 | 1.6 | 6.4 | 0.00 | 0.10 | 0.10 | 71 | 1011.4 |
| 20260505053059 | 6 | 325 | 3.2 | 6.4 | 0.00 | 0.10 | 0.10 | 70 | 1011.4 |
| 20260505052554 | 6 | 250 | 3.2 | 6.4 | 0.00 | 0.10 | 0.10 | 69 | 1011.4 |
| 20260505052054 | 6 | 243 | 4.8 | 11.3 | 0.00 | 0.10 | 0.10 | 69 | 1011.6 |
| 20260505051558 | 7 | 254 | 3.2 | 11.3 | 0.00 | 0.10 | 0.10 | 69 | 1011.6 |
| 20260505051052 | 7 | 246 | 4.8 | 11.3 | 0.00 | 0.10 | 0.10 | 69 | 1011.6 |
| 20260505050553 | 7 | 242 | 3.2 | 8.0 | 0.00 | 0.10 | 0.10 | 69 | 1011.8 |
| 20260505041556 | 7 | 269 | 3.2 | 11.3 | 0.00 | 0.10 | 0.10 | 66 | 1011.1 |
| 20260505041054 | 7 | 299 | 4.8 | 11.3 | 0.00 | 0.10 | 0.10 | 66 | 1011.1 |
| 20260505040554 | 8 | 289 | 4.8 | 12.9 | 0.00 | 0.10 | 0.10 | 65 | 1011.2 |
| 20260505035555 | 8 | 298 | 6.4 | 14.5 | 0.00 | 0.10 | 0.10 | 64 | 1011.0 |
| 20260505035057 | 8 | 298 | 6.4 | 14.5 | 0.00 | 0.10 | 0.10 | 63 | 1011.0 |
| 20260505034556 | 8 | 290 | 6.4 | 12.9 | 0.00 | 0.10 | 0.10 | 63 | 1010.9 |
| 20260505034052 | 8 | 311 | 6.4 | 12.9 | 0.00 | 0.10 | 0.10 | 63 | 1010.9 |
| 20260505033554 | 8 | 339 | 4.8 | 11.3 | 0.00 | 0.10 | 0.10 | 63 | 1011.0 |
| 20260505033100 | 8 | 335 | 4.8 | 12.9 | 0.00 | 0.10 | 0.10 | 62 | 1010.7 |
| 20260505032553 | 9 | 286 | 4.8 | 12.9 | 0.00 | 0.10 | 0.10 | 62 | 1010.7 |
| 20260505032058 | 9 | 328 | 4.8 | 11.3 | 0.00 | 0.10 | 0.10 | 61 | 1010.7 |
| 20260505031555 | 9 | 323 | 4.8 | 11.3 | 0.00 | 0.10 | 0.10 | 62 | 1010.6 |
| 20260505031054 | 9 | 292 | 6.4 | 11.3 | 0.00 | 0.10 | 0.10 | 60 | 1010.6 |
| 20260505030558 | 9 | 273 | 4.8 | 11.3 | 0.00 | 0.10 | 0.10 | 61 | 1010.5 |
| 20260505030057 | 10 | 288 | 4.8 | 12.9 | 0.00 | 0.10 | 0.10 | 60 | 1010.4 |
| 20260505025554 | 9 | 277 | 6.4 | 12.9 | 0.00 | 0.10 | 0.10 | 59 | 1010.4 |
| 20260505025053 | 9 | 342 | 6.4 | 12.9 | 0.00 | 0.10 | 0.10 | 60 | 1010.3 |
| 20260505024554 | 9 | 312 | 6.4 | 12.9 | 0.00 | 0.10 | 0.10 | 61 | 1010.2 |
| 20260505024054 | 9 | 300 | 6.4 | 11.3 | 0.00 | 0.10 | 0.10 | 61 | 1010.3 |
| 20260505023552 | 10 | 289 | 4.8 | 11.3 | 0.00 | 0.10 | 0.10 | 60 | 1010.2 |
| 20260505023054 | 10 | 282 | 3.2 | 6.4 | 0.00 | 0.10 | 0.10 | 60 | 1010.2 |
| 20260505022552 | 10 | 305 | 1.6 | 6.4 | 0.00 | 0.10 | 0.10 | 60 | 1010.2 |
| 20260505022057 | 10 | 275 | 3.2 | 6.4 | 0.00 | 0.10 | 0.10 | 59 | 1010.2 |
| 20260505021553 | 10 | 257 | 3.2 | 6.4 | 0.00 | 0.10 | 0.10 | 59 | 1010.2 |
| 20260505021055 | 10 | 244 | 3.2 | 6.4 | 0.00 | 0.10 | 0.10 | 58 | 1010.2 |
| 20260505020554 | 11 | 221 | 3.2 | 6.4 | 0.00 | 0.10 | 0.10 | 60 | 1010.3 |
| 20260505020054 | 11 | 265 | 3.2 | 8.0 | 0.00 | 0.10 | 0.10 | 57 | 1010.1 |
| 20260505015554 | 11 | 279 | 3.2 | 9.7 | 0.00 | 0.10 | 0.10 | 57 | 1010.1 |
| 20260505015054 | 11 | 269 | 4.8 | 9.7 | 0.00 | 0.10 | 0.10 | 55 | 1010.2 |
| 20260505014556 | 12 | 239 | 1.6 | 9.7 | 0.00 | 0.10 | 0.10 | 55 | 1010.2 |
| 20260505014054 | 12 | 292 | 1.6 | 12.9 | 0.00 | 0.10 | 0.10 | 51 | 1010.2 |
| 20260505013554 | 12 | 329 | 4.8 | 12.9 | 0.00 | 0.10 | 0.10 | 50 | 1010.3 |
| 20260505013054 | 12 | 317 | 4.8 | 12.9 | 0.00 | 0.10 | 0.10 | 50 | 1010.4 |
| 20260505012554 | 12 | 251 | 4.8 | 11.3 | 0.00 | 0.10 | 0.10 | 48 | 1010.4 |
| 20260505012055 | 12 | 261 | 6.4 | 12.9 | 0.00 | 0.10 | 0.10 | 47 | 1010.2 |
| 20260505011600 | 12 | 257 | 6.4 | 16.1 | 0.00 | 0.10 | 0.10 | 47 | 1010.3 |
| 20260505011055 | 12 | 228 | 6.4 | 19.3 | 0.00 | 0.10 | 0.10 | 49 | 1010.3 |
| 20260505010554 | 12 | 271 | 9.7 | 19.3 | 0.00 | 0.10 | 0.10 | 50 | 1010.3 |
| 20260505010104 | 12 | 243 | 9.7 | 19.3 | 0.00 | 0.10 | 0.10 | 51 | 1010.4 |
| 20260505005555 | 12 | 284 | 9.7 | 19.3 | 0.00 | 0.10 | 0.10 | 52 | 1010.6 |
| 20260505005057 | 12 | 257 | 6.4 | 19.3 | 0.00 | 0.10 | 0.10 | 53 | 1010.7 |
| 20260505004552 | 12 | 279 | 9.7 | 19.3 | 0.00 | 0.10 | 0.10 | 54 | 1010.7 |
| 20260505004055 | 12 | 252 | 9.7 | 19.3 | 0.00 | 0.10 | 0.10 | 56 | 1010.7 |
| 20260505003554 | 12 | 239 | 9.7 | 17.7 | 0.00 | 0.10 | 0.10 | 54 | 1010.7 |
| 20260505003056 | 11 | 221 | 8.0 | 16.1 | 0.00 | 0.10 | 0.10 | 54 | 1010.9 |
| 20260505002554 | 11 | 268 | 9.7 | 16.1 | 0.00 | 0.10 | 0.10 | 55 | 1010.9 |
| 20260505002054 | 11 | 232 | 3.2 | 22.5 | 0.00 | 0.10 | 0.10 | 56 | 1011.1 |
| 20260505001554 | 11 | 323 | 3.2 | 22.5 | 0.03 | 0.10 | 0.10 | 54 | 1011.3 |
| 20260505001051 | 10 | 296 | 11.3 | 22.5 | 0.03 | 0.10 | 0.10 | 53 | 1011.3 |
| 20260505000551 | 10 | 314 | 9.7 | 20.9 | 0.05 | 0.10 | 0.10 | 58 | 1011.6 |
| 20260505000101 | 10 | 309 | 4.8 | 17.7 | 0.08 | 0.10 | 0.10 | 62 | 1011.9 |
| 20260504235555 | 9 | 273 | 8.0 | 17.7 | 0.08 | 0.10 | 0.10 | 65 | 1012.1 |
| 20260504235055 | 9 | 273 | 9.7 | 16.1 | 0.10 | 0.10 | 0.10 | 68 | 1012.3 |
| 20260504234605 | 9 | 261 | 9.7 | 24.1 | 0.10 | 0.10 | 0.10 | 68 | 1012.4 |
| 20260504234057 | 8 | 282 | 9.7 | 24.1 | 0.10 | 0.10 | 0.10 | 68 | 1012.4 |
| 20260504233554 | 8 | 282 | 11.3 | 29.0 | 0.10 | 0.10 | 0.10 | 68 | 1012.5 |
| 20260504233059 | 8 | 282 | 14.5 | 29.0 | 0.10 | 0.10 | 0.10 | 69 | 1012.6 |
| 20260504232555 | 8 | 261 | 17.7 | 32.2 | 0.10 | 0.10 | 0.10 | 70 | 1012.4 |
| 20260504232056 | 8 | 277 | 16.1 | 32.2 | 0.10 | 0.10 | 0.10 | 70 | 1012.5 |
| 20260504231553 | 8 | 257 | 19.3 | 40.2 | 0.08 | 0.08 | 0.08 | 70 | 1012.5 |
| 20260504231055 | 9 | 273 | 19.3 | 41.8 | 0.08 | 0.08 | 0.08 | 68 | 1012.5 |
| 20260504230554 | 10 | 275 | 25.7 | 41.8 | 0.05 | 0.05 | 0.05 | 65 | 1012.6 |
| 20260504230055 | 10 | 290 | 20.9 | 45.1 | 0.03 | 0.03 | 0.03 | 63 | 1012.6 |
| 20260504225552 | 10 | 296 | 25.7 | 45.1 | 0.03 | 0.03 | 0.03 | 62 | 1012.3 |
| 20260504225057 | 10 | 284 | 20.9 | 40.2 | 0.00 | 0.00 | 0.00 | 59 | 1012.2 |
| 20260504224554 | 10 | 252 | 19.3 | 37.0 | 0.00 | 0.00 | 0.00 | 60 | 1011.7 |
| 20260504224055 | 11 | 225 | 17.7 | 33.8 | 0.00 | 0.00 | 0.00 | 58 | 1011.6 |
| 20260504223555 | 11 | 298 | 11.3 | 30.6 | 0.00 | 0.00 | 0.00 | 56 | 1011.6 |
| 20260504223055 | 11 | 271 | 12.9 | 30.6 | 0.00 | 0.00 | 0.00 | 53 | 1011.6 |
| 20260504222555 | 12 | 261 | 19.3 | 30.6 | 0.00 | 0.00 | 0.00 | 52 | 1011.7 |
| 20260504222058 | 12 | 255 | 14.5 | 33.8 | 0.00 | 0.00 | 0.00 | 51 | 1011.6 |
| 20260504221551 | 13 | 86 | 12.9 | 33.8 | 0.00 | 0.00 | 0.00 | 51 | 1011.4 |
| 20260504221054 | 13 | 141 | 17.7 | 35.4 | 0.00 | 0.00 | 0.00 | 48 | 1011.2 |
| 20260504220554 | 13 | 163 | 12.9 | 35.4 | 0.00 | 0.00 | 0.00 | 46 | 1011.2 |
| 20260504215552 | 14 | 115 | 12.9 | 33.8 | 0.00 | 0.00 | 0.00 | 44 | 1011.1 |
| 20260504215051 | 15 | 154 | 14.5 | 33.8 | 0.00 | 0.00 | 0.00 | 42 | 1011.2 |
| 20260504214600 | 15 | 157 | 14.5 | 33.8 | 0.00 | 0.00 | 0.00 | 43 | 1011.1 |
| 20260504214053 | 16 | 171 | 16.1 | 33.8 | 0.00 | 0.00 | 0.00 | 39 | 1011.2 |
| 20260504213552 | 16 | 34 | 16.1 | 33.8 | 0.00 | 0.00 | 0.00 | 37 | 1011.4 |
| 20260504213111 | 17 | 138 | 9.7 | 29.0 | 0.00 | 0.00 | 0.00 | 32 | 1011.5 |
| 20260504212555 | 17 | 74 | 4.8 | 14.5 | 0.00 | 0.00 | 0.00 | 30 | 1011.1 |
| 20260504212055 | 17 | 78 | 4.8 | 22.5 | 0.00 | 0.00 | 0.00 | 30 | 1011.1 |
| 20260504211556 | 17 | 239 | 4.8 | 22.5 | 0.00 | 0.00 | 0.00 | 28 | 1011.1 |
| 20260504211054 | 18 | 38 | 6.4 | 22.5 | 0.00 | 0.00 | 0.00 | 31 | 1011.2 |
| 20260504210554 | 18 | 66 | 6.4 | 22.5 | 0.00 | 0.00 | 0.00 | 30 | 1011.3 |
| 20260504210104 | 18 | 9 | 4.8 | 22.5 | 0.00 | 0.00 | 0.00 | 30 | 1011.4 |
| 20260504205555 | 18 | 29 | 9.7 | 22.5 | 0.00 | 0.00 | 0.00 | 31 | 1011.5 |
| 20260504205054 | 18 | 169 | 8.0 | 22.5 | 0.00 | 0.00 | 0.00 | 30 | 1011.5 |
| 20260504204605 | 17 | 69 | 6.4 | 22.5 | 0.00 | 0.00 | 0.00 | 32 | 1011.5 |
| 20260504204054 | 17 | 69 | 4.8 | 24.1 | 0.00 | 0.00 | 0.00 | 32 | 1011.5 |
| 20260504203552 | 16 | 16 | 8.0 | 24.1 | 0.00 | 0.00 | 0.00 | 33 | 1011.5 |
| 20260504203058 | 16 | 111 | 12.9 | 24.1 | 0.00 | 0.00 | 0.00 | 31 | 1011.6 |
| 20260504202555 | 17 | 22 | 11.3 | 24.1 | 0.00 | 0.00 | 0.00 | 31 | 1011.7 |
| 20260504202057 | 17 | 335 | 8.0 | 33.8 | 0.00 | 0.00 | 0.00 | 32 | 1011.7 |
| 20260504201553 | 17 | 47 | 11.3 | 33.8 | 0.00 | 0.00 | 0.00 | 33 | 1011.8 |
| 20260504201055 | 17 | 27 | 11.3 | 30.6 | 0.00 | 0.00 | 0.00 | 32 | 1011.6 |
| 20260504200555 | 17 | 344 | 12.9 | 30.6 | 0.00 | 0.00 | 0.00 | 30 | 1011.7 |
| 20260504200059 | 18 | 344 | 12.9 | 30.6 | 0.00 | 0.00 | 0.00 | 29 | 1011.8 |
| 20260504195554 | 18 | 57 | 17.7 | 30.6 | 0.00 | 0.00 | 0.00 | 29 | 1011.8 |
| 20260504195054 | 18 | 44 | 14.5 | 30.6 | 0.00 | 0.00 | 0.00 | 29 | 1011.8 |
| 20260504194559 | 18 | 53 | 6.4 | 25.7 | 0.00 | 0.00 | 0.00 | 30 | 1011.8 |
| 20260504194054 | 17 | 339 | 11.3 | 25.7 | 0.00 | 0.00 | 0.00 | 31 | 1011.8 |
| 20260504193554 | 17 | 25 | 6.4 | 27.4 | 0.00 | 0.00 | 0.00 | 32 | 1011.8 |
| 20260504193113 | 17 | 344 | 11.3 | 27.4 | 0.00 | 0.00 | 0.00 | 32 | 1012.0 |
| 20260504192553 | 16 | 21 | 8.0 | 29.0 | 0.00 | 0.00 | 0.00 | 34 | 1012.0 |
| 20260504192054 | 16 | 45 | 8.0 | 29.0 | 0.00 | 0.00 | 0.00 | 33 | 1012.0 |
| 20260504191559 | 16 | 30 | 9.7 | 29.0 | 0.00 | 0.00 | 0.00 | 32 | 1011.9 |
| 20260504191052 | 16 | 22 | 3.2 | 12.9 | 0.00 | 0.00 | 0.00 | 31 | 1012.1 |
| 20260504190555 | 16 | 360 | 4.8 | 12.9 | 0.00 | 0.00 | 0.00 | 30 | 1012.0 |
| 20260504190107 | 16 | 254 | 3.2 | 11.3 | 0.00 | 0.00 | 0.00 | 33 | 1012.1 |
| 20260504185554 | 15 | 178 | 1.6 | 17.7 | 0.00 | 0.00 | 0.00 | 32 | 1012.2 |
| 20260504185054 | 15 | 153 | 4.8 | 17.7 | 0.00 | 0.00 | 0.00 | 31 | 1012.4 |
| 20260504184556 | 16 | 230 | 4.8 | 29.0 | 0.00 | 0.00 | 0.00 | 32 | 1012.4 |
| 20260504184057 | 16 | 229 | 6.4 | 29.0 | 0.00 | 0.00 | 0.00 | 31 | 1012.3 |
| 20260504183555 | 16 | 93 | 8.0 | 30.6 | 0.00 | 0.00 | 0.00 | 31 | 1012.4 |
| 20260504183101 | 16 | 102 | 11.3 | 30.6 | 0.00 | 0.00 | 0.00 | 32 | 1012.3 |
| 20260504182554 | 16 | 167 | 12.9 | 30.6 | 0.00 | 0.00 | 0.00 | 32 | 1012.4 |
| 20260504182052 | 16 | 120 | 11.3 | 19.3 | 0.00 | 0.00 | 0.00 | 33 | 1012.5 |
| 20260504181559 | 16 | 153 | 6.4 | 16.1 | 0.00 | 0.00 | 0.00 | 36 | 1012.5 |
| 20260504181052 | 16 | 120 | 4.8 | 16.1 | 0.00 | 0.00 | 0.00 | 35 | 1012.5 |
| 20260504180557 | 16 | 171 | 6.4 | 16.1 | 0.00 | 0.00 | 0.00 | 34 | 1012.5 |
| 20260504180138 | 16 | 155 | 9.7 | 16.1 | 0.00 | 0.00 | 0.00 | 35 | 1012.5 |
| 20260504175555 | 16 | 138 | 6.4 | 14.5 | 0.00 | 0.00 | 0.00 | 34 | 1012.5 |
| 20260504175055 | 17 | 159 | 4.8 | 14.5 | 0.00 | 0.00 | 0.00 | 33 | 1012.5 |
| 20260504174555 | 17 | 193 | 4.8 | 11.3 | 0.00 | 0.00 | 0.00 | 31 | 1012.5 |
| 20260504174055 | 17 | 0 | 1.6 | 11.3 | 0.00 | 0.00 | 0.00 | 30 | 1012.5 |
| 20260504173555 | 17 | 178 | 3.2 | 11.3 | 0.00 | 0.00 | 0.00 | 31 | 1012.5 |